CheckWX is a tool to help pilots better visualize weather data.  It is not intended as a substitute for an official pre-flight weather briefing.

16:19:44 UTC

CYCX METAR
CFB Gagetown Heliport
Gagetown, New Brunswick, Canada
Current

1 hour ago

CYCX 161500Z AUTO 10005KT 060V130 9SM OVC032 OVC041 17/10 A3039 RMK SLP293
Observed
Jul-16 @ 15:00 UTC
Wind
  • 100° at 5 KTS
Visibility
9 SM
Flight Rules
VFR
Cloud Levels
  • Overcast at 3,200' AGL
  • Overcast at 4,100' AGL
Temperature
17°C / 63°F
Dewpoint
10°C / 50°F
Humidity
64%
Altimeter
30.39" Hg
Pressure
1029.12 hPa
Previous

2 hours ago

CYCX 161400Z AUTO 07006KT 030V110 9SM OVC026 17/10 A3040 RMK SLP296
Observed
Jul-16 @ 14:00 UTC
Wind
  • 070° at 6 KTS
Visibility
9 SM
Flight Rules
MVFR
Cloud Levels
  • Overcast at 2,600' AGL
Temperature
17°C / 63°F
Dewpoint
10°C / 50°F
Humidity
64%
Altimeter
30.4" Hg
Pressure
1029.42 hPa
Previous

3 hours ago

CYCX 161300Z AUTO 08002KT 9SM OVC031 OVC066 15/10 A3040 RMK SLP297
Observed
Jul-16 @ 13:00 UTC
Wind
  • 080° at 2 KTS
Visibility
9 SM
Flight Rules
VFR
Cloud Levels
  • Overcast at 3,100' AGL
  • Overcast at 6,600' AGL
Temperature
15°C / 59°F
Dewpoint
10°C / 50°F
Humidity
72%
Altimeter
30.4" Hg
Pressure
1029.42 hPa